Skip Navigation Links Skip Navigation Links

Current Weather

Boryspil, Kiev, Ukraine

For information only: do not use for flight planning or navigation.
Latest weather
Observation time Thursday, December 14, 2017 3:30 AM EET
Local time Thursday, December 14, 2017 4:11 AM EET
Flight conditions Low Instrument Meteorological Conditions
Winds
Wind direction North-Northeast (20°)
Wind speed 7 mph
Visibility 4.3 mi.
Present weather light snow, snow showers
Sky condition
Ceiling 300 ft. broken clouds
Cloud layer broken clouds 300 ft.
Cloud layer overcast 400 ft.
Cloud layer broken clouds with cumulonimbus 1,000 ft.
Temperature 34°F
Dewpoint 32°F
Altimeter 29.83 in.Hg
Derived measurements
Relative humidity 93%
Wind chill 28°F
Density altitude -956 ft.
METAR UKKK 140130Z 02003MPS 7000 -SN OVC004 01/00 Q1010 R08/290350 TEMPO 1200 SHSN BKN003 BKN010CB

Settings

Location code

InnerDrive.Weather 4.0.6144.1 Release CLR 4.0.30319.36366
Copyright ©2015 Inner Drive Technology. All rights reserved. Portions Copyright ©1986-2015 David Braverman.

Find weather

Site navigation


Skip Navigation Links

Place info

Page info

PayPal - The safer, easier way to pay online!

Return home.

Copyright ©2017 Inner Drive Technology. Purveyors of fine, hand-crafted computer software. Page printed 2017-12-14T02:11:21 UTC.